Braintree, Massachusetts
Current Conditions -  °F | °C
As of 3:53 PM on Sunday 28 Dec 2014 (Local Time) from KOWD Reporting Station
Scattered Clouds Scattered Clouds  
Wind Chill: 44°   Ceiling: Unl
Heat Index: 49°   Visibility: 10mi
Dew Point: 36°   Wind: 12mph
Humidity: 61%   Direction: 280°W
Pressure: 29.84"   Gusts: 20mph
Location:  42.21°N, 71°W
Report Text: KOWD 282053Z 28010G17KT 10SM SCT033 09/02 A2984 RMK AO2 SLP103 T00940022 53022
Loading
Personal Weather Stations






























Interactive Weather Map New forecast layout! Learn more

10-Day Weather Forecast

Advertisements
Track Severe Weather on mobile